Aeroporto :
LOGIN :

Iscrizione | Disclaimer

   EN    FR    IT 

 










Sommario :    VFR   VFR Marginale   IFR   IFR Intensivo   IFR Molto Intensivo
Visibilità : 
Base nubi : 
>= 8 km
>= 3000ft
5 / 8 km
1000 / 3000 ft
1500m / 5 km
500 / 1000 ft
800 / 1500m
200 / 500 ft
< 800m
< 200 ft
Simboli :   Temporali  Nebbia  Neve Forte  Precipitazioni Forti  Vento > 20 kt
SIGMETs :   Varie  Temporali  Ghiacco  Turbolenza  Onda orograficha  Ceneri Vulcaniche






- Altitudine del aeroporto : 436 ft
- Codice IATA : BTS


LZIB - Bratislava

ULTIMO METAR :
  • 232330Z VRB01KT 4000 BR FEW018 10/10 Q1015

METARs OBSOLETI :
  • 232300Z 36003KT 3000 BR SCT005 10/10 Q1015
  • 232230Z 36004KT 2500 BR BKN005 10/10 Q1015
  • 232200Z 35005KT 2500 BR SCT005 OVC006 10/09 Q1015
  • 232130Z 01004KT 2500 BR BKN004 OVC005 10/10 Q1015
  • 232100Z 03005KT 2000 BR BKN003 OVC004 10/09 Q1015

TAF TAF LZIB
Valido dal 24 a 00 ore il 25 a 00 ore UTC


232300Z 2400/2500 34005KT 2800 BR BKN005
TEMPO 2400/2403 VRB02KT 1100 BCFG OVC003
BECMG 2403/2405 9999 SCT013 BKN045
TEMPO 2403/2413 -RA FEW005 BKN025
BECMG 2416/2418 VRB02KT
BECMG 2420/2422 1200 BR SCT003



MetMap, La meteo Aeronautica in un colpo d'occhio ! - Copyright ORBIFLY Dicembre 2007 - Disclaimer

ORBIFLY MET'MAP TEAM :

Programmazione e sviluppo : Alexandra Zaïnal
Concezione : Baudouin d'Aumeries
Aiuto per la programmazione : Marc-Olivier Méhu
Supporto tecnico e logistico : Manuel Goepfert
Aiuto per la traduzione : Arnaldo La Scala

Contatto : metmap@orbifly.com




FONTI E CREDITI :

   NOAA